MET'MAP v2.0
soon released !

Expected late october,
this new version will be
more efficient, smarter,
and hosted on a brand new
server x3 powerfull...
...and still free !


Not compatible ?
Try the mobile version !

LOG IN : | Subscribe | Disclaimer | Who is Orbifly ? |
ICAO code :
Legend : VFR Marginal VFR IFR Intensive IFR Very Intensive IFR
Visi :
Ceiling :
>= 8 km
>= 3000ft
5 to 8 km
1000 to 3000 ft
1500m to 5 km
500 to 1000 ft
800 to 1500m
200 to 500 ft
< 800m
< 200 ft

METAR - LPMT Montijo Air Base - 09 Apr 2020 18:24 UTC - Data Source NOAA   


- Airport Elevation : 46 ft
- IATA code : PAF
- No reported NOTAMs.


LPMT - Montijo Air Base

Latest METAR recorded : 2015/04/24 12:00 LPMT 241200Z 23008KT 9999 VCSH FEW009 SCT012 BKN018 18/16 Q1016
TAF TAF LPMT
Valid from the 09 at 12:00 until the 10 at 12:00 UTC


091103Z 0912/1012 23005KT 7000 -RA SCT010 BKN020
TEMPO 0912/0918 3000 RADZ BR SCT006 BKN012
PROB40
TEMPO 0912/0914 2000 DZRA BR SCT004 BKN008
BECMG 0919/0921 9999 NSW FEW007 BKN012
PROB40 1000/1007 2000 BR BKN004
BECMG 1006/1009 35005KT FEW015 SCT030

Source NOAA


MET'MAP, your aeronautical weather chart ! - Copyright ORBIFLY December 2007

Programming & Development : Alexandra Zaïnal
Co-Developer : Marc-Olivier Méhu
Technical & hardware support : Manuel Goepfert
Concept & Financing : Baudouin d'Aumeries